createdAt,value
2018-08-21T00:00:12.249Z,0
2018-08-21T00:01:14.364Z,0
2018-08-21T00:02:16.451Z,0
2018-08-21T00:03:18.554Z,0
2018-08-21T00:04:20.937Z,0
2018-08-21T00:05:23.047Z,0
2018-08-21T00:06:25.138Z,0
2018-08-21T00:07:27.543Z,0
2018-08-21T00:08:29.644Z,0
2018-08-21T00:09:31.724Z,0
2018-08-21T00:10:34.218Z,0
2018-08-21T00:11:36.312Z,0
2018-08-21T00:12:38.787Z,0
2018-08-21T00:13:41.268Z,0
2018-08-21T00:14:44.150Z,0
2018-08-21T00:15:46.244Z,0
2018-08-21T00:16:48.353Z,0
2018-08-21T00:17:50.457Z,0
2018-08-21T00:18:52.542Z,0
2018-08-21T00:19:54.640Z,0
2018-08-21T00:20:56.731Z,0
2018-08-21T00:21:59.131Z,0
2018-08-21T00:23:01.221Z,0
2018-08-21T00:24:04.021Z,0
2018-08-21T00:25:06.126Z,0
2018-08-21T00:26:08.209Z,0
2018-08-21T00:27:10.308Z,0
2018-08-21T00:28:12.405Z,0
2018-08-21T00:29:14.508Z,0
2018-08-21T00:30:16.591Z,0
2018-08-21T00:31:18.985Z,0
2018-08-21T00:32:21.079Z,0
2018-08-21T00:33:23.453Z,0
2018-08-21T00:34:25.561Z,0
2018-08-21T00:35:27.644Z,0
2018-08-21T00:36:29.819Z,0
2018-08-21T00:37:31.914Z,0
2018-08-21T00:38:34.019Z,0
2018-08-21T00:39:36.106Z,0
2018-08-21T00:40:38.206Z,0
2018-08-21T00:41:40.307Z,0
2018-08-21T00:42:42.396Z,0
2018-08-21T00:43:44.502Z,0
2018-08-21T00:44:46.598Z,0
2018-08-21T00:45:48.679Z,0
2018-08-21T00:46:50.771Z,0
2018-08-21T00:47:52.874Z,0
2018-08-21T00:48:54.966Z,0
2018-08-21T00:49:57.067Z,0
2018-08-21T00:50:59.163Z,0
2018-08-21T00:52:01.247Z,0
2018-08-21T00:53:03.341Z,0
2018-08-21T00:54:05.452Z,0
2018-08-21T00:55:07.531Z,0
2018-08-21T00:56:09.631Z,0
2018-08-21T00:57:11.732Z,0
2018-08-21T00:58:14.104Z,0
2018-08-21T00:59:16.211Z,0
2018-08-21T01:00:18.301Z,0
2018-08-21T01:01:20.681Z,0
2018-08-21T01:02:23.055Z,0
2018-08-21T01:03:25.168Z,0
2018-08-21T01:04:27.256Z,0
2018-08-21T01:05:29.744Z,0
2018-08-21T01:06:31.851Z,0
2018-08-21T01:07:33.960Z,0
2018-08-21T01:08:36.045Z,0
2018-08-21T01:09:38.432Z,0
2018-08-21T01:10:40.532Z,0
2018-08-21T01:11:42.610Z,0
2018-08-21T01:12:44.719Z,0
2018-08-21T01:13:46.810Z,0
2018-08-21T01:14:48.902Z,0
2018-08-21T01:15:51.011Z,0
2018-08-21T01:16:53.096Z,0
2018-08-21T01:17:55.888Z,0
2018-08-21T01:18:57.991Z,0
2018-08-21T01:20:00.092Z,0
2018-08-21T01:21:02.180Z,0
2018-08-21T01:22:04.275Z,0
2018-08-21T01:23:06.360Z,0
2018-08-21T01:24:08.450Z,0
2018-08-21T01:25:10.556Z,0
2018-08-21T01:26:12.647Z,0
2018-08-21T01:27:15.117Z,0
2018-08-21T01:28:17.226Z,0
2018-08-21T01:29:19.315Z,0
2018-08-21T01:30:21.795Z,0
2018-08-21T01:31:24.286Z,0
2018-08-21T01:32:26.366Z,0
2018-08-21T01:33:28.470Z,0
2018-08-21T01:34:30.860Z,0
2018-08-21T01:35:33.251Z,0
2018-08-21T01:36:35.788Z,0
2018-08-21T01:37:37.874Z,0
2018-08-21T01:38:39.969Z,0
2018-08-21T01:39:42.072Z,0
2018-08-21T01:40:44.150Z,0
2018-08-21T01:41:46.256Z,0
2018-08-21T01:42:48.355Z,0
2018-08-21T01:43:50.462Z,0
2018-08-21T01:44:52.826Z,0
2018-08-21T01:45:55.222Z,0
2018-08-21T01:46:57.314Z,0
2018-08-21T01:47:59.404Z,0
2018-08-21T01:49:01.827Z,0
2018-08-21T01:50:03.908Z,0
2018-08-21T01:51:06.005Z,0
2018-08-21T01:52:08.103Z,0
2018-08-21T01:53:10.200Z,0
2018-08-21T01:54:12.670Z,0
2018-08-21T01:55:14.767Z,0
2018-08-21T01:56:16.852Z,0
2018-08-21T01:57:18.950Z,0
2018-08-21T01:58:21.060Z,0
2018-08-21T01:59:23.161Z,0
2018-08-21T02:00:25.640Z,0
2018-08-21T02:01:28.043Z,0
2018-08-21T02:02:30.137Z,0
2018-08-21T02:03:32.229Z,0
2018-08-21T02:04:34.329Z,0
2018-08-21T02:05:36.413Z,0
2018-08-21T02:06:38.514Z,0
2018-08-21T02:07:40.604Z,0
2018-08-21T02:08:42.708Z,0
2018-08-21T02:09:44.794Z,0
2018-08-21T02:10:46.895Z,0
2018-08-21T02:11:48.990Z,0
2018-08-21T02:12:51.072Z,0
2018-08-21T02:13:53.171Z,0
2018-08-21T02:14:55.280Z,0
2018-08-21T02:15:57.763Z,0
2018-08-21T02:16:59.870Z,0
2018-08-21T02:18:01.946Z,0
2018-08-21T02:19:04.049Z,0
2018-08-21T02:20:06.431Z,0
2018-08-21T02:21:08.517Z,0
2018-08-21T02:22:11.202Z,0
2018-08-21T02:23:13.281Z,0
2018-08-21T02:24:15.767Z,0
2018-08-21T02:25:17.866Z,0
2018-08-21T02:26:20.252Z,0
2018-08-21T02:27:22.336Z,0
2018-08-21T02:28:24.435Z,0
2018-08-21T02:29:26.815Z,0
2018-08-21T02:30:28.912Z,0
2018-08-21T02:31:31.404Z,0
2018-08-21T02:32:33.792Z,0
2018-08-21T02:33:36.457Z,0
2018-08-21T02:34:38.564Z,0
2018-08-21T02:35:40.945Z,0
2018-08-21T02:36:43.037Z,0
2018-08-21T02:37:45.141Z,0
2018-08-21T02:38:47.224Z,0
2018-08-21T02:39:49.710Z,0
2018-08-21T02:40:52.089Z,0
2018-08-21T02:41:54.504Z,0
2018-08-21T02:42:56.587Z,0
2018-08-21T02:43:58.689Z,0
2018-08-21T02:45:01.079Z,0
2018-08-21T02:46:03.164Z,0
2018-08-21T02:47:05.592Z,0
2018-08-21T02:48:07.678Z,0
2018-08-21T02:49:09.776Z,0
2018-08-21T02:50:11.863Z,0
2018-08-21T02:51:13.968Z,0
2018-08-21T02:52:16.057Z,0
2018-08-21T02:53:18.536Z,0
2018-08-21T02:54:20.628Z,0
2018-08-21T02:55:23.030Z,0
2018-08-21T02:56:25.109Z,0
2018-08-21T02:57:27.595Z,0
2018-08-21T02:58:29.696Z,0
2018-08-21T02:59:31.793Z,0
2018-08-21T03:00:33.877Z,0
2018-08-21T03:01:35.977Z,0
2018-08-21T03:02:38.356Z,0
2018-08-21T03:03:41.140Z,0
2018-08-21T03:04:43.247Z,0
2018-08-21T03:05:45.728Z,0
2018-08-21T03:06:47.819Z,0
2018-08-21T03:07:50.904Z,0
2018-08-21T03:08:52.995Z,0
2018-08-21T03:09:55.086Z,0
2018-08-21T03:10:57.518Z,0
2018-08-21T03:11:59.607Z,0
2018-08-21T03:13:02.772Z,0
2018-08-21T03:14:04.875Z,0
2018-08-21T03:15:06.978Z,0
2018-08-21T03:16:09.066Z,0
2018-08-21T03:17:11.173Z,0
2018-08-21T03:18:13.656Z,0
2018-08-21T03:19:15.743Z,0
2018-08-21T03:20:17.854Z,0
2018-08-21T03:21:19.937Z,0
2018-08-21T03:22:22.035Z,0
2018-08-21T03:23:24.129Z,0
2018-08-21T03:24:26.241Z,0
2018-08-21T03:25:28.325Z,0
2018-08-21T03:26:30.423Z,0
2018-08-21T03:27:32.838Z,0
2018-08-21T03:28:34.918Z,4
2018-08-21T03:29:37.022Z,4
2018-08-21T03:30:39.118Z,4
2018-08-21T03:31:41.591Z,0
2018-08-21T03:32:43.999Z,4
2018-08-21T03:33:46.101Z,4
2018-08-21T03:34:48.193Z,8
2018-08-21T03:35:50.295Z,4
2018-08-21T03:36:52.395Z,8
2018-08-21T03:37:54.478Z,8
2018-08-21T03:38:56.963Z,8
2018-08-21T03:39:59.360Z,12
2018-08-21T03:41:01.444Z,12
2018-08-21T03:42:03.832Z,16
2018-08-21T03:43:06.218Z,16
2018-08-21T03:44:08.698Z,20
2018-08-21T03:45:10.803Z,24
2018-08-21T03:46:12.895Z,28
2018-08-21T03:47:15.342Z,36
2018-08-21T03:48:17.370Z,36
2018-08-21T03:49:19.476Z,48
2018-08-21T03:50:21.574Z,56
2018-08-21T03:51:23.673Z,64
2018-08-21T03:52:25.773Z,72
2018-08-21T03:53:27.851Z,84
2018-08-21T03:54:29.958Z,100
2018-08-21T03:55:32.049Z,112
2018-08-21T03:56:34.156Z,128
2018-08-21T03:57:36.236Z,144
2018-08-21T03:58:38.344Z,160
2018-08-21T03:59:41.020Z,180
2018-08-21T04:00:43.421Z,200
2018-08-21T04:01:45.523Z,220
2018-08-21T04:02:47.903Z,236
2018-08-21T04:03:50.288Z,260
2018-08-21T04:04:52.677Z,276
2018-08-21T04:05:54.774Z,300
2018-08-21T04:06:56.868Z,320
2018-08-21T04:07:58.956Z,344
2018-08-21T04:09:01.062Z,368
2018-08-21T04:10:03.163Z,392
2018-08-21T04:11:05.246Z,416
2018-08-21T04:12:07.342Z,444
2018-08-21T04:13:09.443Z,464
2018-08-21T04:14:11.911Z,496
2018-08-21T04:15:14.008Z,528
2018-08-21T04:16:16.104Z,564
2018-08-21T04:17:18.186Z,596
2018-08-21T04:18:20.987Z,632
2018-08-21T04:19:23.074Z,664
2018-08-21T04:20:25.166Z,700
2018-08-21T04:21:27.558Z,740
2018-08-21T04:22:29.668Z,780
2018-08-21T04:23:31.756Z,824
2018-08-21T04:24:34.585Z,868
2018-08-21T04:25:39.058Z,912
2018-08-21T04:26:41.143Z,960
2018-08-21T04:27:43.243Z,1004
2018-08-21T04:28:45.335Z,1048
2018-08-21T04:29:47.434Z,1096
2018-08-21T04:30:49.514Z,1144
2018-08-21T04:31:51.909Z,1196
2018-08-21T04:32:54.289Z,1248
2018-08-21T04:33:56.381Z,1304
2018-08-21T04:34:58.494Z,1352
2018-08-21T04:36:00.580Z,1404
2018-08-21T04:37:02.680Z,1452
2018-08-21T04:38:04.842Z,1504
2018-08-21T04:39:06.888Z,1556
2018-08-21T04:40:08.978Z,1608
2018-08-21T04:41:11.389Z,1664
2018-08-21T04:42:13.478Z,1712
2018-08-21T04:43:15.571Z,1768
2018-08-21T04:44:17.679Z,1820
2018-08-21T04:45:20.073Z,1872
2018-08-21T04:46:22.263Z,1920
2018-08-21T04:47:24.262Z,1972
2018-08-21T04:48:26.351Z,2020
2018-08-21T04:49:28.439Z,2072
2018-08-21T04:50:30.928Z,2116
2018-08-21T04:51:33.008Z,2164
2018-08-21T04:52:35.108Z,2212
2018-08-21T04:53:37.598Z,2256
2018-08-21T04:54:40.023Z,2300
2018-08-21T04:55:42.493Z,2340
2018-08-21T04:56:44.603Z,2384
2018-08-21T04:57:46.700Z,2428
2018-08-21T04:58:48.856Z,2468
2018-08-21T04:59:51.782Z,2508
2018-08-21T05:00:53.850Z,2552
2018-08-21T05:01:55.949Z,2592
2018-08-21T05:02:58.043Z,2644
2018-08-21T05:04:00.142Z,2684
2018-08-21T05:05:02.233Z,2728
2018-08-21T05:06:05.012Z,2780
2018-08-21T05:07:07.697Z,2832
2018-08-21T05:08:10.084Z,2884
2018-08-21T05:09:12.477Z,2940
2018-08-21T05:10:14.565Z,2996
2018-08-21T05:11:16.649Z,3060
2018-08-21T05:12:18.743Z,3120
2018-08-21T05:13:21.131Z,3184
2018-08-21T05:14:23.222Z,3256
2018-08-21T05:15:25.324Z,3328
2018-08-21T05:16:27.807Z,3400
2018-08-21T05:17:29.889Z,3476
2018-08-21T05:18:31.985Z,3556
2018-08-21T05:19:34.098Z,3636
2018-08-21T05:20:36.178Z,3712
2018-08-21T05:21:38.665Z,3796
2018-08-21T05:22:40.766Z,3880
2018-08-21T05:23:43.185Z,3960
2018-08-21T05:24:45.560Z,4036
2018-08-21T05:25:47.657Z,4108
2018-08-21T05:26:50.146Z,4176
2018-08-21T05:27:52.247Z,4248
2018-08-21T05:28:54.327Z,4316
2018-08-21T05:29:56.742Z,4384
2018-08-21T05:30:59.222Z,4452
2018-08-21T05:32:01.311Z,4516
2018-08-21T05:33:03.420Z,4580
2018-08-21T05:34:05.898Z,4644
2018-08-21T05:35:07.996Z,4704
2018-08-21T05:36:10.089Z,4764
2018-08-21T05:37:12.197Z,4820
2018-08-21T05:38:14.676Z,4880
2018-08-21T05:39:17.073Z,4928
2018-08-21T05:40:19.173Z,4976
2018-08-21T05:41:21.252Z,5020
2018-08-21T05:42:23.746Z,5072
2018-08-21T05:43:26.235Z,5120
2018-08-21T05:44:28.623Z,5164
2018-08-21T05:45:30.718Z,5212
2018-08-21T05:46:32.822Z,5256
2018-08-21T05:47:35.023Z,5292
2018-08-21T05:48:37.125Z,5332
2018-08-21T05:49:39.223Z,5368
2018-08-21T05:50:41.307Z,5404
2018-08-21T05:51:43.706Z,5440
2018-08-21T05:52:45.814Z,5476
2018-08-21T05:53:47.893Z,5516
2018-08-21T05:54:49.990Z,5544
2018-08-21T05:55:52.127Z,5584
2018-08-21T05:56:54.588Z,5632
2018-08-21T05:57:56.700Z,5676
2018-08-21T05:58:58.794Z,5720
2018-08-21T06:00:00.888Z,5772
2018-08-21T06:01:03.273Z,5816
2018-08-21T06:02:05.769Z,5860
2018-08-21T06:03:07.856Z,5908
2018-08-21T06:04:10.243Z,5956
2018-08-21T06:05:12.738Z,6008
2018-08-21T06:06:14.812Z,6052
2018-08-21T06:07:16.917Z,6092
2018-08-21T06:08:19.011Z,6140
2018-08-21T06:09:21.114Z,6176
2018-08-21T06:10:23.202Z,6220
2018-08-21T06:11:25.305Z,6264
2018-08-21T06:12:28.075Z,6312
2018-08-21T06:13:30.166Z,6356
2018-08-21T06:14:32.278Z,6400
2018-08-21T06:15:34.368Z,6444
2018-08-21T06:16:36.465Z,6488
2018-08-21T06:17:38.572Z,6536
2018-08-21T06:18:40.676Z,6568
2018-08-21T06:19:43.052Z,6612
2018-08-21T06:20:45.146Z,6664
2018-08-21T06:21:47.235Z,6728
2018-08-21T06:22:49.329Z,6868
2018-08-21T06:23:51.437Z,7060
2018-08-21T06:24:53.628Z,7284
2018-08-21T06:25:56.222Z,7620
2018-08-21T06:26:58.332Z,7976
2018-08-21T06:28:00.427Z,8244
2018-08-21T06:29:02.520Z,8436
2018-08-21T06:30:04.627Z,8556
2018-08-21T06:31:06.718Z,8636
2018-08-21T06:32:08.826Z,8612
2018-08-21T06:33:11.210Z,8536
2018-08-21T06:34:13.315Z,8544
2018-08-21T06:35:15.398Z,8736
2018-08-21T06:36:17.562Z,9196
2018-08-21T06:37:19.599Z,9408
2018-08-21T06:38:21.691Z,9288
2018-08-21T06:39:23.788Z,9364
2018-08-21T06:40:25.895Z,9732
2018-08-21T06:41:27.990Z,10064
2018-08-21T06:42:30.095Z,10180
2018-08-21T06:43:32.401Z,10292
2018-08-21T06:44:34.289Z,10580
2018-08-21T06:45:36.387Z,10964
2018-08-21T06:46:38.560Z,11464
2018-08-21T06:47:41.130Z,11984
2018-08-21T06:48:43.220Z,12092
2018-08-21T06:49:45.630Z,11828
2018-08-21T06:50:47.738Z,11412
2018-08-21T06:51:49.842Z,10888
2018-08-21T06:52:51.990Z,10460
2018-08-21T06:53:54.039Z,10336
2018-08-21T06:54:56.124Z,10308
2018-08-21T06:55:58.218Z,10052
2018-08-21T06:57:00.330Z,9628
2018-08-21T06:58:02.721Z,9284
2018-08-21T06:59:04.809Z,9260
2018-08-21T07:00:06.966Z,9568
2018-08-21T07:01:09.022Z,10008
2018-08-21T07:02:11.129Z,10548
2018-08-21T07:03:13.250Z,11096
2018-08-21T07:04:15.325Z,11596
2018-08-21T07:05:17.429Z,12156
2018-08-21T07:06:19.531Z,12660
2018-08-21T07:07:21.640Z,13248
2018-08-21T07:08:23.731Z,14068
2018-08-21T07:09:26.133Z,14928
2018-08-21T07:10:28.620Z,15740
2018-08-21T07:11:31.031Z,16492
2018-08-21T07:12:33.410Z,17044
2018-08-21T07:13:35.799Z,17952
2018-08-21T07:14:37.901Z,18528
2018-08-21T07:15:39.998Z,18976
2018-08-21T07:16:42.697Z,19200
2018-08-21T07:17:44.799Z,19136
2018-08-21T07:18:46.893Z,19104
2018-08-21T07:19:49.380Z,19008
2018-08-21T07:20:51.495Z,18944
2018-08-21T07:21:53.585Z,18912
2018-08-21T07:22:55.983Z,19072
2018-08-21T07:23:58.092Z,18496
2018-08-21T07:25:00.192Z,17472
2018-08-21T07:26:02.302Z,16512
2018-08-21T07:27:04.404Z,15064
2018-08-21T07:28:06.498Z,13708
2018-08-21T07:29:08.615Z,12408
2018-08-21T07:30:11.095Z,11920
2018-08-21T07:31:13.503Z,11784
2018-08-21T07:32:15.599Z,11596
2018-08-21T07:33:18.018Z,11444
2018-08-21T07:34:20.114Z,11344
2018-08-21T07:35:22.264Z,11324
2018-08-21T07:36:24.325Z,11332
2018-08-21T07:37:26.816Z,11360
2018-08-21T07:38:29.314Z,11372
2018-08-21T07:39:31.417Z,11404
2018-08-21T07:40:33.526Z,11428
2018-08-21T07:41:35.621Z,11484
2018-08-21T07:42:37.738Z,11520
2018-08-21T07:43:39.841Z,11556
2018-08-21T07:44:41.934Z,11592
2018-08-21T07:45:44.052Z,11628
2018-08-21T07:46:46.141Z,11684
2018-08-21T07:47:48.701Z,11740
2018-08-21T07:48:53.236Z,11784
2018-08-21T07:49:55.365Z,11824
2018-08-21T07:50:57.518Z,11888
2018-08-21T07:51:59.913Z,11980
2018-08-21T07:53:02.433Z,12092
2018-08-21T07:54:04.543Z,12172
2018-08-21T07:55:07.010Z,12280
2018-08-21T07:56:09.180Z,12600
2018-08-21T07:57:11.925Z,12776
2018-08-21T07:58:14.047Z,13044
2018-08-21T07:59:16.125Z,13172
2018-08-21T08:00:18.229Z,13284
2018-08-21T08:01:20.607Z,13508
2018-08-21T08:02:22.707Z,13760
2018-08-21T08:03:24.821Z,14376
2018-08-21T08:04:26.926Z,14720
2018-08-21T08:05:29.024Z,17480
2018-08-21T08:06:31.140Z,35808
2018-08-21T08:07:33.236Z,53248
2018-08-21T08:08:35.344Z,48384
2018-08-21T08:09:37.768Z,32096
2018-08-21T08:10:40.247Z,34144
2018-08-21T08:11:42.360Z,55264
2018-08-21T08:12:44.470Z,58048
2018-08-21T08:13:46.744Z,47168
2018-08-21T08:14:48.693Z,25696
2018-08-21T08:15:50.823Z,19968
2018-08-21T08:16:53.219Z,18476
2018-08-21T08:17:55.609Z,65120
2018-08-21T08:18:58.046Z,55168
2018-08-21T08:20:00.114Z,59264
2018-08-21T08:21:02.548Z,64320
2018-08-21T08:22:04.649Z,65216
2018-08-21T08:23:06.845Z,72288
2018-08-21T08:24:10.444Z,74848
2018-08-21T08:25:13.423Z,73440
2018-08-21T08:26:15.535Z,65952
2018-08-21T08:27:17.630Z,69888
2018-08-21T08:28:19.748Z,68640
2018-08-21T08:29:21.850Z,73472
2018-08-21T08:30:24.236Z,76128
2018-08-21T08:31:26.629Z,69440
2018-08-21T08:32:28.752Z,61920
2018-08-21T08:33:30.852Z,61728
2018-08-21T08:34:32.968Z,22176
2018-08-21T08:35:35.078Z,82880
2018-08-21T08:36:37.173Z,54656
2018-08-21T08:37:39.671Z,21856
2018-08-21T08:38:41.781Z,25696
2018-08-21T08:39:44.263Z,24544
2018-08-21T08:40:46.373Z,19648
2018-08-21T08:41:48.937Z,17888
2018-08-21T08:42:50.974Z,18272
2018-08-21T08:43:53.773Z,71968
2018-08-21T08:44:55.869Z,59520
2018-08-21T08:45:57.985Z,28672
2018-08-21T08:47:00.906Z,24640
2018-08-21T08:48:07.742Z,22688
2018-08-21T08:49:15.709Z,21664
2018-08-21T08:50:21.076Z,22848
2018-08-21T08:51:34.289Z,31040
2018-08-21T08:52:41.025Z,68384
2018-08-21T08:53:46.469Z,38432
2018-08-21T08:54:54.481Z,35552
2018-08-21T08:56:07.178Z,18240
2018-08-21T08:57:17.421Z,15560
2018-08-21T08:58:26.367Z,15732
2018-08-21T08:59:33.412Z,17532
2018-08-21T09:00:43.158Z,21376
2018-08-21T09:01:50.268Z,24032
2018-08-21T09:02:52.647Z,24000
2018-08-21T09:03:54.759Z,79072
2018-08-21T09:04:56.928Z,44672
2018-08-21T09:05:58.985Z,31008
2018-08-21T09:07:01.086Z,28736
2018-08-21T09:08:03.194Z,30112
2018-08-21T09:09:05.580Z,28960
2018-08-21T09:10:07.968Z,31168
2018-08-21T09:11:10.084Z,28544
2018-08-21T09:12:12.480Z,25472
2018-08-21T09:13:14.880Z,21568
2018-08-21T09:14:17.265Z,20576
2018-08-21T09:15:19.400Z,20992
2018-08-21T09:16:21.832Z,22816
2018-08-21T09:17:24.522Z,38080
2018-08-21T09:18:27.018Z,39808
2018-08-21T09:19:29.425Z,21632
2018-08-21T09:20:31.834Z,22464
2018-08-21T09:21:34.218Z,24960
2018-08-21T09:22:36.339Z,103968
2018-08-21T09:23:38.436Z,31264
2018-08-21T09:24:40.544Z,24544
2018-08-21T09:25:42.808Z,20160
2018-08-21T09:26:44.903Z,20256
2018-08-21T09:27:47.014Z,25792
2018-08-21T09:28:49.505Z,119456
2018-08-21T09:29:51.617Z,119552
2018-08-21T09:30:53.707Z,119072
2018-08-21T09:31:55.824Z,61152
2018-08-21T09:32:57.922Z,72128
2018-08-21T09:34:00.415Z,96608
2018-08-21T09:35:02.544Z,117568
2018-08-21T09:36:04.636Z,107296
2018-08-21T09:37:06.753Z,81088
2018-08-21T09:38:08.936Z,110112
2018-08-21T09:39:10.984Z,23328
2018-08-21T09:40:13.083Z,24000
2018-08-21T09:41:15.587Z,29664
2018-08-21T09:42:17.687Z,28384
2018-08-21T09:43:19.795Z,44096
2018-08-21T09:44:22.819Z,40608
2018-08-21T09:45:25.242Z,111200
2018-08-21T09:46:27.320Z,47552
2018-08-21T09:47:29.835Z,43840
2018-08-21T09:48:31.938Z,50752
2018-08-21T09:49:34.044Z,64320
2018-08-21T09:50:36.146Z,31392
2018-08-21T09:51:38.280Z,25536
2018-08-21T09:52:40.369Z,84096
2018-08-21T09:53:42.478Z,23936
2018-08-21T09:54:44.587Z,44032
2018-08-21T09:55:46.715Z,111328
2018-08-21T09:56:48.819Z,115872
2018-08-21T09:57:51.251Z,119872
2018-08-21T09:58:53.371Z,119424
2018-08-21T09:59:55.859Z,34496
2018-08-21T10:00:57.984Z,30752
2018-08-21T10:02:00.094Z,29664
2018-08-21T10:03:02.211Z,29152
2018-08-21T10:04:04.309Z,28128
2018-08-21T10:05:06.425Z,25408
2018-08-21T10:06:09.259Z,24032
2018-08-21T10:07:11.596Z,24736
2018-08-21T10:08:13.722Z,25568
2018-08-21T10:09:16.115Z,30464
2018-08-21T10:10:18.225Z,45632
2018-08-21T10:11:21.029Z,34720
2018-08-21T10:12:23.140Z,37696
2018-08-21T10:13:25.299Z,31584
2018-08-21T10:14:27.357Z,28736
2018-08-21T10:15:29.752Z,25408
2018-08-21T10:16:31.858Z,23616
2018-08-21T10:17:33.980Z,23200
2018-08-21T10:18:36.375Z,23008
2018-08-21T10:19:38.477Z,22688
2018-08-21T10:20:40.599Z,22400
2018-08-21T10:21:42.703Z,22400
2018-08-21T10:22:44.809Z,23840
2018-08-21T10:23:46.929Z,23232
2018-08-21T10:24:49.021Z,53696
2018-08-21T10:25:51.140Z,26912
2018-08-21T10:26:53.278Z,34752
2018-08-21T10:27:55.398Z,74784
2018-08-21T10:28:57.520Z,98304
2018-08-21T10:29:59.628Z,64128
2018-08-21T10:31:02.138Z,76992
2018-08-21T10:32:04.262Z,43872
2018-08-21T10:33:06.362Z,107776
2018-08-21T10:34:08.485Z,52480
2018-08-21T10:35:10.599Z,101152
2018-08-21T10:36:12.717Z,99072
2018-08-21T10:37:14.817Z,92320
2018-08-21T10:38:16.938Z,35840
2018-08-21T10:39:19.040Z,31136
2018-08-21T10:40:21.144Z,29024
2018-08-21T10:41:23.268Z,27680
2018-08-21T10:42:25.370Z,26560
2018-08-21T10:43:27.873Z,24896
2018-08-21T10:44:29.993Z,24480
2018-08-21T10:45:32.105Z,24192
2018-08-21T10:46:34.207Z,23744
2018-08-21T10:47:36.329Z,23264
2018-08-21T10:48:39.014Z,23360
2018-08-21T10:49:41.130Z,23872
2018-08-21T10:50:43.252Z,24864
2018-08-21T10:51:45.449Z,26464
2018-08-21T10:52:47.462Z,28416
2018-08-21T10:53:49.879Z,29152
2018-08-21T10:54:51.979Z,30176
2018-08-21T10:55:54.088Z,34784
2018-08-21T10:56:56.206Z,32448
2018-08-21T10:57:58.308Z,44544
2018-08-21T10:59:00.422Z,84480
2018-08-21T11:00:03.252Z,41408
2018-08-21T11:01:05.360Z,49216
2018-08-21T11:02:07.489Z,29120
2018-08-21T11:03:09.888Z,116576
2018-08-21T11:04:11.998Z,111072
2018-08-21T11:05:14.100Z,70144
2018-08-21T11:06:16.517Z,113024
2018-08-21T11:07:18.619Z,118816
2018-08-21T11:08:20.737Z,124320
2018-08-21T11:09:22.842Z,130304
2018-08-21T11:10:25.255Z,68800
2018-08-21T11:11:27.358Z,82496
2018-08-21T11:12:29.565Z,142400
2018-08-21T11:13:31.962Z,130976
2018-08-21T11:14:34.062Z,43648
2018-08-21T11:15:36.185Z,38688
2018-08-21T11:16:38.301Z,37952
2018-08-21T11:17:40.993Z,37408
2018-08-21T11:18:43.105Z,36256
2018-08-21T11:19:45.226Z,35392
2018-08-21T11:20:47.722Z,36192
2018-08-21T11:21:49.844Z,40544
2018-08-21T11:22:51.962Z,44832
2018-08-21T11:23:54.354Z,71840
2018-08-21T11:24:57.142Z,47488
2018-08-21T11:25:59.658Z,33888
2018-08-21T11:27:01.780Z,29568
2018-08-21T11:28:03.896Z,38624
2018-08-21T11:29:06.012Z,41120
2018-08-21T11:30:08.118Z,30080
2018-08-21T11:31:10.245Z,32768
2018-08-21T11:32:12.352Z,46080
2018-08-21T11:33:14.464Z,129376
2018-08-21T11:34:16.571Z,131072
2018-08-21T11:35:18.695Z,80000
2018-08-21T11:36:20.798Z,125824
2018-08-21T11:37:22.911Z,132032
2018-08-21T11:38:25.030Z,128768
2018-08-21T11:39:27.128Z,129536
2018-08-21T11:40:29.251Z,131936
2018-08-21T11:41:31.368Z,152256
2018-08-21T11:42:33.486Z,146528
2018-08-21T11:43:35.590Z,147488
2018-08-21T11:44:37.750Z,71616
2018-08-21T11:45:40.174Z,49632
2018-08-21T11:46:42.894Z,51680
2018-08-21T11:47:44.997Z,36416
2018-08-21T11:48:47.122Z,34528
2018-08-21T11:49:49.237Z,45504
2018-08-21T11:50:51.345Z,32640
2018-08-21T11:51:53.458Z,32992
2018-08-21T11:52:55.870Z,35488
2018-08-21T11:53:58.299Z,40864
2018-08-21T11:55:00.430Z,80128
2018-08-21T11:56:02.843Z,83712
2018-08-21T11:57:04.958Z,31808
2018-08-21T11:58:07.910Z,49984
2018-08-21T11:59:10.326Z,67488
2018-08-21T12:00:12.481Z,42464
2018-08-21T12:01:14.542Z,46048
2018-08-21T12:02:16.662Z,128352
2018-08-21T12:03:19.121Z,118208
2018-08-21T12:04:21.193Z,111776
2018-08-21T12:05:23.606Z,115168
2018-08-21T12:06:26.011Z,125792
2018-08-21T12:07:28.118Z,121536
2018-08-21T12:08:30.248Z,117504
2018-08-21T12:09:32.352Z,120768
2018-08-21T12:10:34.754Z,120608
2018-08-21T12:11:36.875Z,117824
2018-08-21T12:12:38.977Z,114880
2018-08-21T12:13:41.098Z,113888
2018-08-21T12:14:43.227Z,111712
2018-08-21T12:15:45.799Z,107040
2018-08-21T12:16:47.903Z,107232
2018-08-21T12:17:50.027Z,107488
2018-08-21T12:18:52.434Z,112384
2018-08-21T12:19:54.549Z,113408
2018-08-21T12:20:56.968Z,108544
2018-08-21T12:21:59.079Z,107808
2018-08-21T12:23:01.194Z,112256
2018-08-21T12:24:03.597Z,115360
2018-08-21T12:25:05.718Z,112256
2018-08-21T12:26:07.845Z,112000
2018-08-21T12:27:10.251Z,113984
2018-08-21T12:28:12.383Z,109920
2018-08-21T12:29:14.832Z,69760
2018-08-21T12:30:16.935Z,104704
2018-08-21T12:31:19.055Z,104288
2018-08-21T12:32:21.181Z,100480
2018-08-21T12:33:23.287Z,111136
2018-08-21T12:34:25.713Z,118560
2018-08-21T12:35:27.833Z,111840
2018-08-21T12:36:30.235Z,109504
2018-08-21T12:37:32.368Z,106016
2018-08-21T12:38:34.487Z,100896
2018-08-21T12:39:36.900Z,99776
2018-08-21T12:40:39.011Z,101024
2018-08-21T12:41:41.142Z,104384
2018-08-21T12:42:43.250Z,111264
2018-08-21T12:43:45.369Z,108160
2018-08-21T12:44:47.497Z,104832
2018-08-21T12:45:49.600Z,52896
2018-08-21T12:46:52.120Z,41472
2018-08-21T12:47:54.238Z,106528
2018-08-21T12:48:56.682Z,105600
2018-08-21T12:49:58.784Z,103872
2018-08-21T12:51:00.907Z,98848
2018-08-21T12:52:03.022Z,101120
2018-08-21T12:53:05.140Z,101312
2018-08-21T12:54:07.275Z,101184
2018-08-21T12:55:09.388Z,97088
2018-08-21T12:56:11.797Z,84416
2018-08-21T12:57:13.923Z,36896
2018-08-21T12:58:16.043Z,105120
2018-08-21T12:59:18.154Z,73088
2018-08-21T13:00:20.305Z,93664
2018-08-21T13:01:22.405Z,87552
2018-08-21T13:02:24.526Z,95008
2018-08-21T13:03:26.944Z,102656
2018-08-21T13:04:29.352Z,102016
2018-08-21T13:05:31.481Z,96832
2018-08-21T13:06:33.584Z,94016
2018-08-21T13:07:35.706Z,97856
2018-08-21T13:08:37.824Z,99136
2018-08-21T13:09:39.933Z,95936
2018-08-21T13:10:42.066Z,93344
2018-08-21T13:11:44.180Z,90592
2018-08-21T13:12:46.297Z,92768
2018-08-21T13:13:48.407Z,97184
2018-08-21T13:14:50.929Z,96256
2018-08-21T13:15:53.464Z,92576
2018-08-21T13:16:55.955Z,93632
2018-08-21T13:17:58.083Z,96320
2018-08-21T13:19:00.475Z,83520
2018-08-21T13:20:02.919Z,92992
2018-08-21T13:21:05.036Z,95552
2018-08-21T13:22:07.161Z,96736
2018-08-21T13:23:09.266Z,102592
2018-08-21T13:24:11.700Z,96032
2018-08-21T13:25:13.817Z,85632
2018-08-21T13:26:15.930Z,84320
2018-08-21T13:27:18.064Z,69280
2018-08-21T13:28:20.179Z,84224
2018-08-21T13:29:22.355Z,66208
2018-08-21T13:30:24.437Z,93408
2018-08-21T13:31:26.554Z,95232
2018-08-21T13:32:28.667Z,86016
2018-08-21T13:33:30.791Z,73888
2018-08-21T13:34:33.291Z,49024
2018-08-21T13:35:35.407Z,55232
2018-08-21T13:36:37.710Z,37536
2018-08-21T13:37:39.688Z,45792
2018-08-21T13:38:41.852Z,74400
2018-08-21T13:39:45.352Z,70144
2018-08-21T13:40:47.952Z,83552
2018-08-21T13:41:50.391Z,86208
2018-08-21T13:42:52.923Z,49280
2018-08-21T13:43:55.684Z,96640
2018-08-21T13:44:58.207Z,98112
2018-08-21T13:46:00.334Z,105984
2018-08-21T13:47:02.470Z,108096
2018-08-21T13:48:04.863Z,98272
2018-08-21T13:49:07.691Z,100736
2018-08-21T13:50:10.108Z,100512
2018-08-21T13:51:12.610Z,105184
2018-08-21T13:52:14.749Z,98816
2018-08-21T13:53:16.864Z,91168
2018-08-21T13:54:18.991Z,90560
2018-08-21T13:55:21.109Z,85792